Time;durP1;ratioP1;P1;durP2;ratioP2;P2;SDS_P1;SDS_P2;PMS_P1;PMS_P2;Temp;Humidity;BMP_temperature;BMP_pressure;BME280_temperature;BME280_humidity;BME280_pressure;Samples;Min_cycle;Max_cycle;Signal;HPM_P1;HPM_P2
2022/07/19 00:00:37;;;;;;;5.22;3.28;;;18.20;1.00;;;;;;4829444;29;20051;-82
2022/07/19 00:03:25;;;;;;;3.80;3.00;;;18.20;1.00;;;;;;4817372;29;20054;-83
2022/07/19 00:06:12;;;;;;;3.75;3.22;;;18.10;1.00;;;;;;4833139;29;20126;-82
2022/07/19 00:09:03;;;;;;;5.43;2.85;;;18.20;1.00;;;;;;4825517;29;20375;-82
2022/07/19 00:11:50;;;;;;;4.88;2.92;;;18.30;1.00;;;;;;4813853;29;20047;-82
2022/07/19 00:14:40;;;;;;;5.93;3.40;;;18.30;1.00;;;;;;4824875;29;20195;-82
2022/07/19 00:17:27;;;;;;;4.05;2.88;;;18.20;1.00;;;;;;4820831;29;20133;-83
2022/07/19 00:20:22;;;;;;;4.13;3.05;;;18.10;1.00;;;;;;4811182;29;20468;-82
2022/07/19 00:23:10;;;;;;;5.18;2.70;;;18.00;1.00;;;;;;4820754;29;20054;-83
2022/07/19 00:26:00;;;;;;;7.10;3.03;;;17.90;1.00;;;;;;4838986;29;20106;-82
2022/07/19 00:28:47;;;;;;;5.45;2.85;;;17.80;1.00;;;;;;4817452;29;20073;-83
2022/07/19 00:31:35;;;;;;;4.95;3.17;;;17.60;1.00;;;;;;4814318;29;20055;-83
2022/07/19 00:34:23;;;;;;;8.82;3.05;;;17.60;1.00;;;;;;4825557;29;20057;-84
2022/07/19 00:37:10;;;;;;;4.65;2.47;;;17.40;1.00;;;;;;4831953;29;20475;-83
2022/07/19 00:39:58;;;;;;;7.80;2.80;;;17.40;1.00;;;;;;4826945;29;20480;-83
2022/07/19 00:42:45;;;;;;;6.70;2.55;;;17.40;1.00;;;;;;4825997;29;20055;-83
2022/07/19 00:45:32;;;;;;;3.78;2.40;;;17.30;1.00;;;;;;4825528;29;20061;-83
2022/07/19 00:48:20;;;;;;;5.25;2.25;;;17.40;1.00;;;;;;4836774;29;20059;-83
2022/07/19 00:51:08;;;;;;;3.67;2.42;;;17.50;1.00;;;;;;4828065;29;20150;-83
2022/07/19 00:53:56;;;;;;;4.05;2.63;;;17.50;1.00;;;;;;4826559;29;20054;-84
2022/07/19 00:56:47;;;;;;;4.30;2.83;;;17.60;1.00;;;;;;4827011;29;20219;-84
2022/07/19 00:59:35;;;;;;;6.18;2.70;;;17.50;1.00;;;;;;4826735;29;20537;-83
2022/07/19 01:02:24;;;;;;;6.05;2.83;;;17.40;1.00;;;;;;4821323;29;20082;-83
2022/07/19 01:05:11;;;;;;;4.80;2.83;;;17.30;1.00;;;;;;4825850;29;20377;-84
2022/07/19 01:08:01;;;;;;;3.15;2.33;;;17.30;1.00;;;;;;4829629;29;20050;-84
2022/07/19 01:10:49;;;;;;;6.22;2.80;;;17.30;1.00;;;;;;4840288;29;20540;-83
2022/07/19 01:13:36;;;;;;;5.82;2.83;;;17.20;1.00;;;;;;4841295;29;20046;-83
2022/07/19 01:16:24;;;;;;;3.97;2.70;;;17.20;1.00;;;;;;4826851;29;20055;-83
2022/07/19 01:19:13;;;;;;;5.95;2.90;;;17.30;1.00;;;;;;4832673;29;20453;-83
2022/07/19 01:22:02;;;;;;;11.00;3.00;;;17.20;1.00;;;;;;4826072;29;20050;-83
2022/07/19 01:24:49;;;;;;;3.58;2.80;;;17.20;1.00;;;;;;4829469;29;20126;-83
2022/07/19 01:27:42;;;;;;;10.57;3.00;;;17.10;1.00;;;;;;4818028;29;20426;-84
2022/07/19 01:30:29;;;;;;;6.18;2.78;;;17.00;1.00;;;;;;4825321;29;20054;-84
2022/07/19 01:33:17;;;;;;;5.45;2.53;;;16.80;1.00;;;;;;4826958;29;20240;-83
2022/07/19 01:36:04;;;;;;;4.90;2.58;;;16.70;1.00;;;;;;4827084;29;20487;-83
2022/07/19 01:38:51;;;;;;;3.45;2.80;;;16.60;1.00;;;;;;4831297;29;20046;-83
2022/07/19 01:41:39;;;;;;;5.93;2.90;;;16.60;1.00;;;;;;4833446;29;20503;-84
2022/07/19 01:44:26;;;;;;;4.15;2.90;;;16.60;1.00;;;;;;4826127;29;20073;-83
2022/07/19 01:47:13;;;;;;;5.82;2.47;;;16.50;1.00;;;;;;4824481;29;20508;-83
2022/07/19 01:50:01;;;;;;;5.38;3.13;;;16.40;1.00;;;;;;4827094;29;20135;-84
2022/07/19 01:52:48;;;;;;;3.88;2.80;;;16.40;1.00;;;;;;4819306;29;20053;-81
2022/07/19 01:55:39;;;;;;;3.85;2.50;;;16.50;1.00;;;;;;4826760;29;20054;-83
2022/07/19 01:58:27;;;;;;;3.80;2.60;;;16.50;1.00;;;;;;4836853;29;20054;-83
2022/07/19 02:01:14;;;;;;;3.35;2.35;;;16.40;1.00;;;;;;4838555;29;20182;-83
2022/07/19 02:04:01;;;;;;;5.88;2.38;;;16.30;1.00;;;;;;4839881;29;20046;-83
2022/07/19 02:06:48;;;;;;;3.13;2.60;;;16.30;1.00;;;;;;4817224;29;20058;-83
2022/07/19 02:09:36;;;;;;;7.03;2.85;;;16.30;1.00;;;;;;4843192;29;20209;-83
2022/07/19 02:12:30;;;;;;;3.38;2.70;;;16.30;1.00;;;;;;4833127;29;20113;-84
2022/07/19 02:15:17;;;;;;;4.60;2.55;;;16.30;1.00;;;;;;4825256;29;20130;-83
2022/07/19 02:18:05;;;;;;;4.28;2.72;;;16.30;1.00;;;;;;4823719;29;20137;-83
2022/07/19 02:20:52;;;;;;;5.13;2.90;;;16.40;1.00;;;;;;4833074;29;20106;-83
2022/07/19 02:23:39;;;;;;;4.60;2.70;;;16.40;1.00;;;;;;4825700;29;20081;-84
2022/07/19 02:26:29;;;;;;;12.38;2.75;;;16.40;1.00;;;;;;4831760;29;20112;-84
2022/07/19 02:29:24;;;;;;;3.85;2.70;;;16.40;1.00;;;;;;4820134;29;20502;-84
2022/07/19 02:32:11;;;;;;;5.65;2.75;;;16.40;1.00;;;;;;4827363;29;20053;-84
2022/07/19 02:34:58;;;;;;;5.70;2.65;;;16.40;1.00;;;;;;4830124;29;20336;-84
2022/07/19 02:37:46;;;;;;;6.10;2.65;;;16.30;1.00;;;;;;4824574;29;20054;-84
2022/07/19 02:40:33;;;;;;;4.63;3.00;;;16.20;1.00;;;;;;4836421;29;20061;-84
2022/07/19 02:43:20;;;;;;;4.63;2.70;;;16.10;1.00;;;;;;4828406;29;20089;-84
2022/07/19 02:46:09;;;;;;;4.55;2.35;;;16.10;1.00;;;;;;4840466;29;20467;-84
2022/07/19 02:48:56;;;;;;;7.03;2.63;;;16.10;1.00;;;;;;4815081;29;20046;-84
2022/07/19 02:51:44;;;;;;;3.95;2.78;;;16.00;1.00;;;;;;4824709;29;20129;-84
2022/07/19 02:54:31;;;;;;;5.28;2.72;;;15.80;1.00;;;;;;4829467;29;20068;-84
2022/07/19 02:57:18;;;;;;;6.47;2.50;;;15.80;1.00;;;;;;4833104;29;20058;-83
2022/07/19 03:00:09;;;;;;;4.93;2.55;;;15.80;1.00;;;;;;4825305;29;20088;-84
2022/07/19 03:03:43;;;;;;;4.75;2.97;;;15.90;1.00;;;;;;4824684;29;20138;-84
2022/07/19 03:06:07;;;;;;;4.13;2.83;;;15.80;1.00;;;;;;4826561;29;20046;-84
2022/07/19 03:08:54;;;;;;;4.13;2.78;;;15.90;1.00;;;;;;4825047;29;20050;-84
2022/07/19 03:11:44;;;;;;;5.40;3.47;;;16.00;1.00;;;;;;4806843;29;20043;-84
2022/07/19 03:14:31;;;;;;;5.47;3.17;;;16.00;1.00;;;;;;4829597;29;20046;-84
2022/07/19 03:17:18;;;;;;;5.00;3.28;;;15.80;1.00;;;;;;4828564;29;20270;-84
2022/07/19 03:20:07;;;;;;;7.47;3.58;;;15.80;1.00;;;;;;4825535;29;20054;-83
2022/07/19 03:22:56;;;;;;;5.50;3.58;;;15.80;1.00;;;;;;4823141;29;20085;-84
2022/07/19 03:25:43;;;;;;;6.35;3.65;;;15.80;1.00;;;;;;4826452;29;20101;-84
2022/07/19 03:28:31;;;;;;;9.07;3.63;;;15.90;1.00;;;;;;4824567;29;20755;-83
2022/07/19 03:31:18;;;;;;;6.53;3.00;;;15.90;1.00;;;;;;4830277;29;20159;-83
2022/07/19 03:34:05;;;;;;;5.07;3.40;;;15.90;1.00;;;;;;4816159;29;20054;-83
2022/07/19 03:36:52;;;;;;;11.00;3.60;;;15.90;1.00;;;;;;4829865;29;20083;-83
2022/07/19 03:39:39;;;;;;;3.97;3.05;;;16.00;1.00;;;;;;4831064;29;20118;-83
2022/07/19 03:42:26;;;;;;;8.60;3.55;;;15.90;1.00;;;;;;4823546;29;20137;-83
2022/07/19 03:45:18;;;;;;;8.07;3.15;;;15.80;1.00;;;;;;4828535;29;20453;-83
2022/07/19 03:48:06;;;;;;;7.03;3.53;;;15.70;1.00;;;;;;4839233;29;20046;-83
2022/07/19 03:50:53;;;;;;;7.22;3.70;;;15.70;1.00;;;;;;4828083;29;20547;-83
2022/07/19 03:53:40;;;;;;;7.75;3.20;;;15.70;1.00;;;;;;4826599;29;20129;-82
2022/07/19 03:56:27;;;;;;;8.55;3.30;;;15.60;1.00;;;;;;4831056;29;20077;-83
2022/07/19 03:59:17;;;;;;;5.90;3.80;;;15.60;1.00;;;;;;4830008;29;20111;-82
2022/07/19 04:02:27;;;;;;;5.10;3.03;;;15.60;17.00;;;;;;4825110;29;20449;-83
2022/07/19 04:09:35;;;;;;;6.10;3.35;;;15.70;1.00;;;;;;4795002;29;20133;-84
2022/07/19 04:12:26;;;;;;;7.40;3.58;;;15.70;21.50;;;;;;4826458;29;20082;-84
2022/07/19 04:15:13;;;;;;;6.68;3.70;;;15.70;15.00;;;;;;4825682;29;20479;-84
2022/07/19 04:18:01;;;;;;;6.35;4.07;;;15.60;23.40;;;;;;4835835;29;20095;-83
2022/07/19 04:20:54;;;;;;;4.95;3.38;;;15.70;52.00;;;;;;4846203;29;20054;-85
2022/07/19 04:23:41;;;;;;;8.00;3.60;;;15.70;70.70;;;;;;4838552;29;20051;-83
2022/07/19 04:26:30;;;;;;;6.13;3.42;;;15.70;77.00;;;;;;4856288;29;20046;-85
2022/07/19 04:29:18;;;;;;;4.95;3.22;;;15.80;90.80;;;;;;4851985;29;20055;-83
2022/07/19 04:32:05;;;;;;;5.18;3.35;;;15.90;92.70;;;;;;4816545;29;20047;-84
2022/07/19 04:34:55;;;;;;;12.95;3.60;;;16.10;35.50;;;;;;4816303;29;20050;-84
2022/07/19 04:37:44;;;;;;;9.02;3.90;;;16.20;1.00;;;;;;4817298;29;20050;-84
2022/07/19 04:40:31;;;;;;;6.45;3.55;;;16.20;1.00;;;;;;4816910;29;20166;-83
2022/07/19 04:43:18;;;;;;;11.15;4.18;;;16.30;1.00;;;;;;4813901;29;20059;-84
2022/07/19 04:46:08;;;;;;;12.65;4.00;;;16.40;1.00;;;;;;4834413;29;20054;-83
2022/07/19 04:48:55;;;;;;;8.88;4.15;;;16.50;1.00;;;;;;4814704;29;20488;-83
2022/07/19 04:51:42;;;;;;;5.72;3.90;;;16.60;1.00;;;;;;4826908;29;20061;-83
2022/07/19 04:54:30;;;;;;;8.23;3.80;;;16.60;1.00;;;;;;4822854;29;20137;-83
2022/07/19 04:57:18;;;;;;;8.85;3.92;;;16.70;1.00;;;;;;4836589;29;20114;-84
2022/07/19 05:00:09;;;;;;;8.98;3.95;;;16.70;1.00;;;;;;4818722;29;20058;-84
2022/07/19 05:02:56;;;;;;;6.47;3.42;;;16.80;1.00;;;;;;4815636;29;20046;-84
2022/07/19 05:05:43;;;;;;;6.85;3.80;;;17.00;1.00;;;;;;4827147;29;20058;-84
2022/07/19 05:08:30;;;;;;;12.10;3.83;;;17.20;1.00;;;;;;4843689;29;20091;-84
2022/07/19 05:11:18;;;;;;;6.43;3.58;;;17.40;1.00;;;;;;4827418;29;20050;-83
2022/07/19 05:14:07;;;;;;;6.95;3.35;;;17.50;1.00;;;;;;4827660;29;20095;-83
2022/07/19 05:16:55;;;;;;;8.35;4.35;;;17.60;1.00;;;;;;4841461;29;20065;-82
2022/07/19 05:19:42;;;;;;;7.40;3.55;;;17.60;1.00;;;;;;4823653;29;20050;-83
2022/07/19 05:22:29;;;;;;;6.05;3.97;;;17.70;1.00;;;;;;4832173;29;20389;-83
2022/07/19 05:25:19;;;;;;;5.70;3.75;;;17.80;1.00;;;;;;4814736;29;20073;-83
2022/07/19 05:28:16;;;;;;;7.72;3.53;;;17.90;1.00;;;;;;4830353;29;20047;-84
2022/07/19 05:31:06;;;;;;;5.43;3.15;;;18.10;1.00;;;;;;4826143;29;20477;-83
2022/07/19 05:33:53;;;;;;;5.63;3.33;;;18.30;1.00;;;;;;4831920;29;20057;-83
2022/07/19 05:36:42;;;;;;;6.80;3.10;;;18.50;1.00;;;;;;4839430;29;20117;-84
2022/07/19 05:39:32;;;;;;;5.18;2.97;;;18.60;1.00;;;;;;4827044;29;20107;-83
2022/07/19 05:42:19;;;;;;;4.43;2.78;;;18.90;1.00;;;;;;4817106;29;20162;-84
2022/07/19 05:45:07;;;;;;;5.30;3.00;;;19.00;1.00;;;;;;4828244;29;20445;-84
2022/07/19 05:47:54;;;;;;;7.22;3.28;;;19.10;1.00;;;;;;4831602;29;20074;-83
2022/07/19 05:50:41;;;;;;;8.98;3.53;;;19.30;1.00;;;;;;4828823;29;20518;-82
2022/07/19 05:53:28;;;;;;;7.88;3.67;;;19.50;1.00;;;;;;4832637;29;20450;-83
2022/07/19 05:56:15;;;;;;;7.80;3.47;;;19.60;1.00;;;;;;4819146;29;20079;-84
2022/07/19 05:59:03;;;;;;;7.82;3.67;;;19.70;1.00;;;;;;4826581;29;20062;-84
2022/07/19 06:01:54;;;;;;;10.25;4.18;;;19.90;1.00;;;;;;4832014;29;20054;-83
2022/07/19 06:04:44;;;;;;;11.50;3.78;;;20.00;1.00;;;;;;4826645;29;20192;-84
2022/07/19 06:07:31;;;;;;;7.30;3.60;;;20.10;1.00;;;;;;4834199;29;20053;-84
2022/07/19 06:10:21;;;;;;;6.65;2.50;;;20.30;1.00;;;;;;4833428;29;20150;-84
2022/07/19 06:13:09;;;;;;;5.07;2.78;;;20.40;1.00;;;;;;4831021;29;20460;-84
2022/07/19 06:15:56;;;;;;;4.65;2.30;;;20.60;1.00;;;;;;4826191;29;20071;-81
2022/07/19 06:18:43;;;;;;;4.65;2.40;;;20.80;1.00;;;;;;4830460;29;20129;-82
2022/07/19 06:21:35;;;;;;;3.90;2.58;;;20.90;1.00;;;;;;4833672;29;20058;-81
2022/07/19 06:24:22;;;;;;;5.72;3.05;;;21.10;1.00;;;;;;4825120;29;20453;-81
2022/07/19 06:27:09;;;;;;;4.22;2.17;;;21.30;1.00;;;;;;4825186;29;20157;-83
2022/07/19 06:29:57;;;;;;;6.50;2.65;;;21.50;1.00;;;;;;4828724;29;20046;-83
2022/07/19 06:32:48;;;;;;;8.25;2.90;;;21.70;1.00;;;;;;4830304;29;20082;-82
2022/07/19 06:35:36;;;;;;;8.73;2.50;;;21.90;1.00;;;;;;4815251;29;20058;-82
2022/07/19 06:38:23;;;;;;;10.90;2.70;;;22.10;1.00;;;;;;4823590;29;20053;-82
2022/07/19 06:41:11;;;;;;;4.28;2.33;;;22.30;1.00;;;;;;4830512;29;20092;-83
2022/07/19 06:43:58;;;;;;;3.72;2.20;;;22.40;1.00;;;;;;4822132;29;20053;-83
2022/07/19 06:46:46;;;;;;;4.05;2.10;;;22.70;1.00;;;;;;4829930;29;20057;-84
2022/07/19 06:49:41;;;;;;;7.53;1.88;;;23.00;1.00;;;;;;4833282;29;20050;-82
2022/07/19 06:52:28;;;;;;;4.82;1.92;;;23.30;1.00;;;;;;4828397;29;20050;-83
2022/07/19 06:55:16;;;;;;;3.03;2.10;;;23.60;1.00;;;;;;4818500;29;20065;-83
2022/07/19 06:58:06;;;;;;;5.07;1.67;;;23.80;99.90;;;;;;4825253;29;20054;-83
2022/07/19 07:00:53;;;;;;;2.95;1.95;;;24.20;99.90;;;;;;4828091;29;20459;-83
2022/07/19 07:03:40;;;;;;;4.97;2.10;;;24.50;99.90;;;;;;4819938;29;20061;-83
2022/07/19 07:06:30;;;;;;;2.70;1.65;;;24.90;99.90;;;;;;4825448;29;20091;-85
2022/07/19 07:09:17;;;;;;;7.03;1.73;;;25.30;99.90;;;;;;4828281;29;20046;-86
2022/07/19 07:12:05;;;;;;;5.32;2.05;;;25.60;99.90;;;;;;4831830;29;20078;-84
2022/07/19 07:14:52;;;;;;;5.88;1.83;;;26.10;99.90;;;;;;4818540;29;20061;-84
2022/07/19 07:17:40;;;;;;;3.28;1.63;;;26.50;99.90;;;;;;4835231;29;20054;-83
2022/07/19 07:20:27;;;;;;;3.88;1.70;;;27.00;99.90;;;;;;4838106;29;20119;-85
2022/07/19 07:23:15;;;;;;;4.20;1.67;;;27.70;99.90;;;;;;4829592;29;20054;-85
2022/07/19 07:26:07;;;;;;;4.53;1.60;;;28.20;99.90;;;;;;4819860;29;20054;-84
2022/07/19 07:28:54;;;;;;;7.07;2.05;;;28.70;99.90;;;;;;4824209;29;20066;-84
2022/07/19 07:31:41;;;;;;;3.72;1.63;;;29.40;99.90;;;;;;4821643;29;20047;-84
2022/07/19 07:34:28;;;;;;;10.13;1.50;;;30.00;99.90;;;;;;4828203;29;20065;-84
2022/07/19 07:37:26;;;;;;;3.80;1.73;;;30.20;99.90;;;;;;4816414;29;20050;-84
2022/07/19 07:40:13;;;;;;;5.93;1.63;;;30.20;99.90;;;;;;4824894;29;20042;-84
2022/07/19 07:43:02;;;;;;;5.95;1.60;;;30.60;99.90;;;;;;4813783;29;20090;-83
2022/07/19 07:45:53;;;;;;;21.20;2.25;;;31.10;99.90;;;;;;4841132;29;20050;-85
2022/07/19 07:48:40;;;;;;;2.15;1.20;;;31.10;99.90;;;;;;4833737;29;20039;-85
2022/07/19 07:51:30;;;;;;;4.57;1.30;;;31.60;99.90;;;;;;4824898;29;20054;-85
2022/07/19 07:54:38;;;;;;;4.63;1.30;;;32.00;99.90;;;;;;4828265;29;20074;-84
2022/07/19 07:57:45;;;;;;;4.75;1.40;;;32.40;99.90;;;;;;4825395;29;20120;-86
2022/07/19 08:00:35;;;;;;;2.08;1.40;;;32.50;99.90;;;;;;4828560;29;20054;-86
2022/07/19 08:03:22;;;;;;;4.85;2.08;;;32.90;99.90;;;;;;4815580;29;20401;-84
2022/07/19 08:06:15;;;;;;;2.85;1.23;;;33.30;99.90;;;;;;4836895;29;20055;-83
2022/07/19 08:09:03;;;;;;;;;;;33.50;99.90;;;;;;4836643;29;20056;-85
2022/07/19 08:11:50;;;;;;;2.75;1.17;;;33.50;99.90;;;;;;4826168;29;20007;-83
2022/07/19 08:14:37;;;;;;;1.65;1.10;;;33.80;99.90;;;;;;4825119;29;20042;-84
2022/07/19 08:17:25;;;;;;;6.18;1.35;;;33.80;99.90;;;;;;4824828;29;20058;-83
2022/07/19 08:20:14;;;;;;;3.33;1.40;;;34.00;99.90;;;;;;4825408;29;20095;-83
2022/07/19 08:23:03;;;;;;;1.92;1.20;;;33.80;99.90;;;;;;4826014;29;20077;-82
2022/07/19 08:25:53;;;;;;;4.10;1.50;;;34.00;99.90;;;;;;4826060;29;20084;-85
2022/07/19 08:28:40;;;;;;;3.75;1.30;;;33.90;99.90;;;;;;4828956;29;20126;-84
2022/07/19 08:31:28;;;;;;;3.67;1.20;;;33.90;99.90;;;;;;4831410;29;20054;-84
2022/07/19 08:34:16;;;;;;;2.53;1.10;;;34.50;99.90;;;;;;4815907;29;20479;-82
2022/07/19 08:37:03;;;;;;;8.18;1.70;;;34.80;99.90;;;;;;4825439;29;20061;-83
2022/07/19 08:39:50;;;;;;;3.17;1.55;;;34.40;99.90;;;;;;4835844;29;20054;-84
2022/07/19 08:42:38;;;;;;;2.88;1.50;;;33.20;99.90;;;;;;4824337;29;20078;-85
2022/07/19 08:45:28;;;;;;;5.60;1.25;;;33.30;99.90;;;;;;4830313;29;20100;-85
2022/07/19 08:48:19;;;;;;;4.07;1.27;;;34.00;99.90;;;;;;4825602;29;20455;-87
2022/07/19 08:51:08;;;;;;;5.57;1.42;;;34.60;99.90;;;;;;4823504;29;20453;-84
2022/07/19 08:53:56;;;;;;;3.25;1.30;;;35.20;99.90;;;;;;4828886;29;20051;-85
2022/07/19 08:59:51;;;;;;;1.90;1.23;;;35.70;99.90;;;;;;4823979;29;20485;-85
2022/07/19 09:02:53;;;;;;;4.47;1.10;;;35.20;99.90;;;;;;4839770;29;20057;-84
2022/07/19 09:05:46;;;;;;;3.55;1.77;;;34.80;99.90;;;;;;4821971;29;20047;-84
2022/07/19 09:08:44;;;;;;;4.38;1.60;;;35.20;99.90;;;;;;4835718;29;20050;-84
2022/07/19 09:11:37;;;;;;;2.70;1.33;;;35.00;99.90;;;;;;4817011;29;20118;-84
2022/07/19 09:14:27;;;;;;;2.67;1.25;;;35.50;99.90;;;;;;4827692;29;20066;-84
2022/07/19 09:17:16;;;;;;;3.15;1.30;;;36.00;99.90;;;;;;4833603;29;20127;-87
2022/07/19 09:20:09;;;;;;;2.60;1.45;;;35.90;99.90;;;;;;4827540;29;20475;-84
2022/07/19 09:22:56;;;;;;;2.22;1.58;;;36.20;99.90;;;;;;4842156;29;20045;-85
2022/07/19 09:25:48;;;;;;;4.30;1.38;;;36.40;99.90;;;;;;4831422;29;20061;-83
2022/07/19 09:28:37;;;;;;;2.38;1.60;;;36.20;99.90;;;;;;4824983;29;20054;-84
2022/07/19 09:31:27;;;;;;;6.43;1.50;;;36.20;99.90;;;;;;4826006;29;20505;-84
2022/07/19 09:34:15;;;;;;;4.70;1.70;;;37.00;99.90;;;;;;4837267;29;20124;-84
2022/07/19 09:37:11;;;;;;;4.95;1.42;;;36.50;99.90;;;;;;4838305;29;20361;-84
2022/07/19 09:40:04;;;;;;;2.83;1.45;;;36.90;99.90;;;;;;4838585;29;20046;-85
2022/07/19 09:42:54;;;;;;;7.18;2.03;;;37.20;99.90;;;;;;4826527;29;20058;-85
2022/07/19 09:45:44;;;;;;;6.55;1.73;;;37.70;99.90;;;;;;4817040;29;20059;-87
2022/07/19 09:48:43;;;;;;;4.88;1.25;;;38.30;99.90;;;;;;4827162;29;20126;-84
2022/07/19 09:51:34;;;;;;;4.45;1.50;;;38.20;99.90;;;;;;4832420;29;20064;-84
2022/07/19 09:54:23;;;;;;;3.15;1.80;;;37.00;99.90;;;;;;4840710;29;20054;-85
2022/07/19 09:57:12;;;;;;;4.13;1.80;;;36.70;99.90;;;;;;4827030;29;20143;-87
2022/07/19 10:00:00;;;;;;;5.07;1.67;;;37.30;99.90;;;;;;4818622;29;20099;-86
2022/07/19 10:03:00;;;;;;;3.53;1.40;;;37.60;99.90;;;;;;4833144;29;20361;-86
2022/07/19 10:05:48;;;;;;;4.57;1.48;;;37.50;99.90;;;;;;4829387;29;20062;-85
2022/07/19 10:08:36;;;;;;;4.65;2.22;;;37.90;99.90;;;;;;4843181;29;20090;-87
2022/07/19 10:11:26;;;;;;;4.55;1.70;;;38.30;99.90;;;;;;4820572;29;20054;-85
2022/07/19 10:14:16;;;;;;;3.28;1.77;;;38.80;99.90;;;;;;4827154;29;20087;-84
2022/07/19 10:17:10;;;;;;;5.78;1.70;;;39.20;99.90;;;;;;4829419;29;20053;-84
2022/07/19 10:19:58;;;;;;;2.10;1.67;;;39.20;99.90;;;;;;4814728;29;20061;-84
2022/07/19 10:22:49;;;;;;;3.05;1.77;;;38.90;99.90;;;;;;4820289;29;20058;-86
2022/07/19 10:25:45;;;;;;;2.70;1.77;;;38.30;99.90;;;;;;4824898;29;20054;-84
2022/07/19 10:28:39;;;;;;;5.88;1.92;;;38.80;99.90;;;;;;4821060;29;20050;-87
2022/07/19 10:32:07;;;;;;;4.40;2.05;;;39.00;99.90;;;;;;4836910;29;20125;-84
2022/07/19 10:35:18;;;;;;;5.30;2.03;;;39.30;99.90;;;;;;4824803;29;20047;-87
2022/07/19 10:38:07;;;;;;;2.60;1.63;;;39.10;99.90;;;;;;4829217;29;20057;-84
2022/07/19 10:40:56;;;;;;;4.40;2.05;;;39.20;99.90;;;;;;4835312;29;20433;-84
2022/07/19 10:44:15;;;;;;;4.15;1.85;;;39.60;99.90;;;;;;4824954;29;20050;-85
2022/07/19 10:47:02;;;;;;;6.93;1.67;;;39.30;99.90;;;;;;4825724;29;20055;-85
2022/07/19 10:50:02;;;;;;;4.60;2.22;;;39.20;99.90;;;;;;4830278;29;20042;-87
2022/07/19 10:52:49;;;;;;;4.50;1.60;;;39.30;99.90;;;;;;4820733;29;20073;-87
2022/07/19 10:55:37;;;;;;;2.33;1.92;;;39.00;99.90;;;;;;4831497;29;20051;-86
2022/07/19 10:58:48;;;;;;;3.28;1.75;;;38.70;99.90;;;;;;4826362;29;20085;-88
2022/07/19 11:01:38;;;;;;;4.35;2.05;;;38.40;99.90;;;;;;4834773;29;20054;-85
2022/07/19 11:04:35;;;;;;;3.00;1.70;;;39.00;99.90;;;;;;4825935;29;20104;-85
2022/07/19 11:07:25;;;;;;;6.65;2.03;;;39.90;99.90;;;;;;4832716;29;20065;-85
2022/07/19 11:10:22;;;;;;;5.38;1.90;;;41.00;99.90;;;;;;4841128;29;20050;-85
2022/07/19 11:13:15;;;;;;;6.95;2.05;;;41.40;99.90;;;;;;4825339;29;20421;-85
2022/07/19 11:16:04;;;;;;;9.77;2.13;;;41.20;99.90;;;;;;4827254;29;20251;-86
2022/07/19 11:19:05;;;;;;;9.38;2.30;;;40.80;99.90;;;;;;4827141;29;20082;-84
2022/07/19 11:21:52;;;;;;;;;;;39.80;99.90;;;;;;4815431;29;20054;-85
2022/07/19 11:24:40;;;;;;;3.80;1.95;;;39.80;99.90;;;;;;4825006;29;20266;-85
2022/07/19 11:27:30;;;;;;;3.58;2.05;;;39.40;99.90;;;;;;4836833;29;20057;-85
2022/07/19 11:30:23;;;;;;;5.38;2.13;;;39.50;99.90;;;;;;4833511;29;20057;-85
2022/07/19 11:33:10;;;;;;;2.65;1.90;;;39.70;99.90;;;;;;4832591;29;20050;-84
2022/07/19 11:36:03;;;;;;;3.92;1.95;;;40.40;99.90;;;;;;4833519;29;20492;-86
2022/07/19 11:38:52;;;;;;;4.78;2.20;;;40.30;99.90;;;;;;4823805;29;20062;-83
2022/07/19 11:41:44;;;;;;;4.90;1.88;;;39.40;99.90;;;;;;4831622;29;20065;-85
2022/07/19 11:44:36;;;;;;;;;;;38.90;99.90;;;;;;4828018;29;20054;-85
2022/07/19 11:47:24;;;;;;;3.55;2.38;;;39.20;99.90;;;;;;4834758;29;19935;-83
2022/07/19 11:50:14;;;;;;;3.90;1.98;;;40.20;99.90;;;;;;4830661;29;20065;-86
2022/07/19 11:53:01;;;;;;;5.13;1.90;;;40.90;99.90;;;;;;4816596;29;20496;-86
2022/07/19 11:55:48;;;;;;;3.03;1.88;;;41.10;99.90;;;;;;4829344;29;20050;-84
2022/07/19 11:58:39;;;;;;;8.45;2.30;;;41.20;99.90;;;;;;4832131;29;20054;-86
2022/07/19 12:01:33;;;;;;;3.45;2.25;;;41.10;99.90;;;;;;4825518;29;20472;-86
2022/07/19 12:04:21;;;;;;;5.95;2.25;;;41.20;99.90;;;;;;4825749;29;20072;-85
2022/07/19 12:07:08;;;;;;;4.05;2.30;;;40.90;99.90;;;;;;4830958;29;20053;-85
2022/07/19 12:09:56;;;;;;;5.35;2.17;;;41.00;99.90;;;;;;4816940;29;20062;-83
2022/07/19 12:12:45;;;;;;;4.45;2.20;;;40.80;99.90;;;;;;4826469;29;20166;-84
2022/07/19 12:15:54;;;;;;;4.15;2.00;;;41.20;99.90;;;;;;4836768;29;20102;-83
2022/07/19 12:18:56;;;;;;;4.82;2.22;;;40.70;99.90;;;;;;4822541;29;20050;-83
2022/07/19 12:21:43;;;;;;;5.35;2.25;;;39.30;99.90;;;;;;4825073;29;20066;-84
2022/07/19 12:24:42;;;;;;;5.47;2.53;;;39.70;99.90;;;;;;4825386;29;20066;-84
2022/07/19 12:27:31;;;;;;;4.32;2.22;;;40.50;99.90;;;;;;4831200;29;20469;-83
2022/07/19 12:34:27;;;;;;;4.82;2.55;;;40.30;99.90;;;;;;4826206;29;20050;-84
2022/07/19 12:37:35;;;;;;;5.03;1.95;;;41.30;99.90;;;;;;4815459;29;20429;-84
2022/07/19 12:40:26;;;;;;;2.78;2.03;;;42.30;99.90;;;;;;4822483;29;20087;-85
2022/07/19 12:43:13;;;;;;;2.92;2.20;;;42.40;99.90;;;;;;4830858;29;20050;-83
2022/07/19 12:46:03;;;;;;;6.35;2.30;;;41.40;99.90;;;;;;4835926;29;20433;-85
2022/07/19 12:48:51;;;;;;;4.28;2.17;;;40.20;99.90;;;;;;4825364;29;20047;-87
2022/07/19 12:51:43;;;;;;;3.45;2.10;;;41.00;99.90;;;;;;4832685;29;20054;-84
2022/07/19 12:54:31;;;;;;;9.75;2.20;;;40.90;99.90;;;;;;4850963;29;20069;-84
2022/07/19 12:57:20;;;;;;;3.58;2.13;;;41.10;99.90;;;;;;4838718;29;20046;-83
2022/07/19 13:00:09;;;;;;;4.97;2.15;;;41.60;99.90;;;;;;4845985;29;20046;-83
2022/07/19 13:02:56;;;;;;;4.07;2.15;;;41.80;99.90;;;;;;4821373;29;20051;-85
2022/07/19 13:05:46;;;;;;;6.82;2.70;;;41.50;99.90;;;;;;4830967;29;20050;-85
2022/07/19 13:08:33;;;;;;;4.45;1.92;;;41.90;99.90;;;;;;4829022;29;20206;-83
2022/07/19 13:11:21;;;;;;;3.75;2.50;;;41.90;99.90;;;;;;4830921;29;20054;-84
2022/07/19 13:14:15;;;;;;;4.38;1.88;;;42.20;99.90;;;;;;4833111;29;20122;-88
2022/07/19 13:17:03;;;;;;;5.00;1.90;;;42.60;99.90;;;;;;4827545;29;20380;-84
2022/07/19 13:19:51;;;;;;;5.10;2.28;;;41.20;99.90;;;;;;4825408;29;20054;-83
2022/07/19 13:22:41;;;;;;;5.35;1.98;;;40.70;99.90;;;;;;4820229;29;20050;-84
2022/07/19 13:25:29;;;;;;;8.50;2.33;;;40.80;99.90;;;;;;4829542;29;20054;-84
2022/07/19 13:28:29;;;;;;;5.25;2.03;;;41.00;99.90;;;;;;4832905;29;20058;-83
2022/07/19 13:31:16;;;;;;;5.68;2.60;;;41.10;99.90;;;;;;4834757;29;20061;-83
2022/07/19 13:34:04;;;;;;;5.65;2.20;;;40.90;99.90;;;;;;4838920;29;20046;-84
2022/07/19 13:36:52;;;;;;;10.65;2.08;;;41.60;99.90;;;;;;4828323;29;20133;-83
2022/07/19 13:39:40;;;;;;;3.90;2.15;;;42.00;99.90;;;;;;4830526;29;20057;-87
2022/07/19 13:42:28;;;;;;;3.47;2.05;;;41.40;99.90;;;;;;4836026;29;20054;-84
2022/07/19 13:45:15;;;;;;;5.20;1.88;;;41.40;99.90;;;;;;4824231;29;20069;-83
2022/07/19 13:48:03;;;;;;;5.68;2.08;;;41.80;99.90;;;;;;4827364;29;20050;-84
2022/07/19 13:50:52;;;;;;;7.88;2.60;;;42.60;99.90;;;;;;4825337;29;20484;-81
2022/07/19 13:53:40;;;;;;;4.45;1.70;;;43.20;99.90;;;;;;4820733;29;20046;-84
2022/07/19 13:56:28;;;;;;;5.40;2.00;;;42.60;99.90;;;;;;4841007;29;20338;-84
2022/07/19 13:59:15;;;;;;;3.45;1.90;;;42.40;99.90;;;;;;4830844;29;20052;-84
2022/07/19 14:02:03;;;;;;;7.22;1.95;;;41.90;99.90;;;;;;4828118;29;20054;-83
2022/07/19 14:04:51;;;;;;;6.93;2.38;;;41.30;99.90;;;;;;4815888;29;20175;-84
2022/07/19 14:07:41;;;;;;;5.43;1.80;;;42.10;99.90;;;;;;4836904;29;20050;-84
2022/07/19 14:10:28;;;;;;;4.95;1.77;;;42.30;99.90;;;;;;4843235;29;20145;-85
2022/07/19 14:13:18;;;;;;;5.00;1.90;;;43.00;99.90;;;;;;4841547;29;20052;-86
2022/07/19 14:16:23;;;;;;;6.63;2.38;;;42.40;99.90;;;;;;4824539;29;20374;-84
2022/07/19 14:19:11;;;;;;;6.15;2.10;;;41.90;99.90;;;;;;4825309;29;20070;-85
2022/07/19 14:21:59;;;;;;;5.85;2.47;;;41.90;99.90;;;;;;4826692;29;20068;-86
2022/07/19 14:24:46;;;;;;;7.30;2.25;;;41.60;99.90;;;;;;4831530;29;20057;-87
2022/07/19 14:27:34;;;;;;;4.45;2.00;;;40.60;99.90;;;;;;4832245;29;20054;-85
2022/07/19 14:30:24;;;;;;;4.55;2.17;;;41.00;99.90;;;;;;4830596;29;20057;-86
2022/07/19 14:33:11;;;;;;;4.25;2.20;;;40.50;99.90;;;;;;4828471;29;20053;-85
2022/07/19 14:35:59;;;;;;;4.93;1.95;;;40.10;99.90;;;;;;4825869;29;20482;-84
2022/07/19 14:38:46;;;;;;;3.30;2.10;;;40.30;99.90;;;;;;4826217;29;20062;-83
2022/07/19 14:41:37;;;;;;;5.95;1.95;;;41.50;99.90;;;;;;4825195;29;20054;-85
2022/07/19 14:44:27;;;;;;;4.90;2.10;;;41.80;99.90;;;;;;4836497;29;20149;-84
2022/07/19 14:47:14;;;;;;;4.68;2.00;;;41.80;99.90;;;;;;4824538;29;20425;-86
2022/07/19 14:50:03;;;;;;;5.78;2.55;;;41.10;99.90;;;;;;4829372;29;20118;-84
2022/07/19 14:52:50;;;;;;;5.15;2.22;;;40.30;99.90;;;;;;4824775;29;20075;-85
2022/07/19 14:55:38;;;;;;;7.45;2.17;;;40.90;99.90;;;;;;4824640;29;20050;-83
2022/07/19 14:58:25;;;;;;;7.63;2.42;;;41.40;99.90;;;;;;4826440;29;20080;-85